createdAt,value
2023-04-28T00:01:36.399Z,6.30
2023-04-28T00:04:08.062Z,6.30
2023-04-28T00:06:37.113Z,6.20
2023-04-28T00:09:05.220Z,6.20
2023-04-28T00:11:33.149Z,6.20
2023-04-28T00:14:01.163Z,6.20
2023-04-28T00:16:29.168Z,6.20
2023-04-28T00:18:58.669Z,6.20
2023-04-28T00:21:26.653Z,6.20
2023-04-28T00:23:54.738Z,6.10
2023-04-28T00:26:22.699Z,6.10
2023-04-28T00:28:50.674Z,6.10
2023-04-28T00:31:18.692Z,6.10
2023-04-28T00:33:46.749Z,6.10
2023-04-28T00:36:16.063Z,6.10
2023-04-28T00:38:44.045Z,6.10
2023-04-28T00:41:12.418Z,6.00
2023-04-28T00:43:47.513Z,6.10
2023-04-28T00:46:22.335Z,6.00
2023-04-28T00:48:50.544Z,6.00
2023-04-28T00:51:19.990Z,5.90
2023-04-28T00:53:48.053Z,5.90
2023-04-28T00:56:16.384Z,5.10
2023-04-28T00:58:44.361Z,5.90
2023-04-28T01:01:12.509Z,5.90
2023-04-28T01:03:41.578Z,5.80
2023-04-28T01:06:10.127Z,5.80
2023-04-28T01:08:40.000Z,5.80
2023-04-28T01:11:07.968Z,5.80
2023-04-28T01:13:35.972Z,5.80
2023-04-28T01:16:04.066Z,5.70
2023-04-28T01:18:32.573Z,5.70
2023-04-28T01:21:00.804Z,5.70
2023-04-28T01:23:28.734Z,5.70
2023-04-28T01:25:58.309Z,5.70
2023-04-28T01:28:26.263Z,5.70
2023-04-28T01:30:55.505Z,5.60
2023-04-28T01:33:23.464Z,5.60
2023-04-28T01:35:51.455Z,5.60
2023-04-28T01:38:19.403Z,5.60
2023-04-28T01:40:47.335Z,5.50
2023-04-28T01:43:16.624Z,5.50
2023-04-28T01:45:44.600Z,5.50
2023-04-28T01:48:12.713Z,5.60
2023-04-28T01:50:40.757Z,5.60
2023-04-28T01:53:08.824Z,5.50
2023-04-28T01:55:36.805Z,5.50
2023-04-28T01:58:05.234Z,5.40
2023-04-28T02:00:34.621Z,5.40
2023-04-28T02:03:02.656Z,5.40
2023-04-28T02:05:30.720Z,5.40
2023-04-28T02:07:58.652Z,5.40
2023-04-28T02:10:29.523Z,5.40
2023-04-28T02:12:59.002Z,5.40
2023-04-28T02:15:31.222Z,5.40
2023-04-28T02:18:00.546Z,5.40
2023-04-28T02:20:29.389Z,5.30
2023-04-28T02:22:58.287Z,5.30
2023-04-28T02:25:26.317Z,5.30
2023-04-28T02:28:08.344Z,5.20
2023-04-28T02:30:36.337Z,5.20
2023-04-28T02:33:05.754Z,5.20
2023-04-28T02:35:33.763Z,5.20
2023-04-28T02:38:01.697Z,5.20
2023-04-28T02:40:29.693Z,5.20
2023-04-28T02:42:57.650Z,5.20
2023-04-28T02:45:25.839Z,5.10
2023-04-28T02:47:54.618Z,5.10
2023-04-28T02:50:24.798Z,5.10
2023-04-28T02:52:52.748Z,6.20
2023-04-28T02:55:24.308Z,5.10
2023-04-28T02:57:52.696Z,5.00
2023-04-28T03:00:23.665Z,5.10
2023-04-28T03:02:51.718Z,5.10
2023-04-28T03:05:20.988Z,5.10
2023-04-28T03:07:50.282Z,5.10
2023-04-28T03:10:18.246Z,5.00
2023-04-28T03:12:46.357Z,5.00
2023-04-28T03:15:14.415Z,4.90
2023-04-28T03:17:43.264Z,4.80
2023-04-28T03:20:11.856Z,4.90
2023-04-28T03:22:40.031Z,4.90
2023-04-28T03:25:12.480Z,4.90
2023-04-28T03:27:40.747Z,4.90
2023-04-28T03:30:10.321Z,4.90
2023-04-28T03:32:38.358Z,4.90
2023-04-28T03:35:07.326Z,4.90
2023-04-28T03:37:36.905Z,4.90
2023-04-28T03:40:06.876Z,5.00
2023-04-28T03:42:41.295Z,5.00
2023-04-28T03:45:12.502Z,5.00
2023-04-28T03:47:44.865Z,5.00
2023-04-28T03:50:12.907Z,5.00
2023-04-28T03:52:40.882Z,5.00
2023-04-28T03:55:09.264Z,5.00
2023-04-28T03:57:38.657Z,5.00
2023-04-28T04:00:07.773Z,5.00
2023-04-28T04:02:35.862Z,4.90
2023-04-28T04:05:04.075Z,4.90
2023-04-28T04:07:32.184Z,4.90
2023-04-28T04:10:01.332Z,4.90
2023-04-28T04:12:30.665Z,4.90
2023-04-28T04:15:00.115Z,5.00
2023-04-28T04:17:28.189Z,5.00
2023-04-28T04:19:56.137Z,5.00
2023-04-28T04:22:24.106Z,5.00
2023-04-28T04:24:52.051Z,5.00
2023-04-28T04:27:23.266Z,5.00
2023-04-28T04:29:51.246Z,5.00
2023-04-28T04:32:20.583Z,5.10
2023-04-28T04:34:48.643Z,5.10
2023-04-28T04:37:16.633Z,5.10
2023-04-28T04:39:46.345Z,5.00
2023-04-28T04:42:24.875Z,5.00
2023-04-28T04:44:54.063Z,5.10
2023-04-28T04:47:29.164Z,5.10
2023-04-28T04:49:57.629Z,5.50
2023-04-28T04:52:25.604Z,5.20
2023-04-28T04:54:53.588Z,5.20
2023-04-28T04:57:21.644Z,5.30
2023-04-28T04:59:49.623Z,5.30
2023-04-28T05:02:17.748Z,5.30
2023-04-28T05:04:50.003Z,5.40
2023-04-28T05:07:18.151Z,5.40
2023-04-28T05:09:46.131Z,5.40
2023-04-28T05:12:14.112Z,5.50
2023-04-28T05:14:42.109Z,5.50
2023-04-28T05:17:10.077Z,5.50
2023-04-28T05:19:41.017Z,5.60
2023-04-28T05:22:11.060Z,5.60
2023-04-28T05:24:39.074Z,5.70
2023-04-28T05:27:07.168Z,5.70
2023-04-28T05:29:38.776Z,5.70
2023-04-28T05:32:06.859Z,5.80
2023-04-28T05:34:34.899Z,5.80
2023-04-28T05:37:02.903Z,5.90
2023-04-28T05:39:32.256Z,6.00
2023-04-28T05:42:00.197Z,5.90
2023-04-28T05:44:28.213Z,6.00
2023-04-28T05:46:56.306Z,6.00
2023-04-28T05:49:24.337Z,6.10
2023-04-28T05:51:52.394Z,6.20
2023-04-28T05:54:20.388Z,6.20
2023-04-28T05:56:49.907Z,6.20
2023-04-28T05:59:18.519Z,6.20
2023-04-28T06:01:46.710Z,6.30
2023-04-28T06:04:15.040Z,6.30
2023-04-28T06:06:43.270Z,6.40
2023-04-28T06:09:11.222Z,6.40
2023-04-28T06:11:39.178Z,6.40
2023-04-28T06:14:08.732Z,6.50
2023-04-28T06:16:39.025Z,6.50
2023-04-28T06:19:07.002Z,6.50
2023-04-28T06:21:35.184Z,6.50
2023-04-28T06:24:03.209Z,6.50
2023-04-28T06:26:31.191Z,6.60
2023-04-28T06:28:59.230Z,6.50
2023-04-28T06:31:28.736Z,6.70
2023-04-28T06:34:01.140Z,6.60
2023-04-28T06:36:29.390Z,6.70
2023-04-28T06:38:58.855Z,6.70
2023-04-28T06:41:26.925Z,6.80
2023-04-28T06:43:54.888Z,6.80
2023-04-28T06:46:22.950Z,6.90
2023-04-28T06:48:52.277Z,6.90
2023-04-28T06:51:20.310Z,7.00
2023-04-28T06:53:53.386Z,7.10
2023-04-28T06:56:22.238Z,7.10
2023-04-28T06:58:50.221Z,7.10
2023-04-28T07:01:18.368Z,7.10
2023-04-28T07:03:46.593Z,7.20
2023-04-28T07:06:16.646Z,7.30
2023-04-28T07:08:47.330Z,7.40
2023-04-28T07:11:16.478Z,7.50
2023-04-28T07:13:46.448Z,7.50
2023-04-28T07:16:14.572Z,7.60
2023-04-28T07:18:42.549Z,7.60
2023-04-28T07:21:10.557Z,7.70
2023-04-28T07:23:40.928Z,7.80
2023-04-28T07:26:09.536Z,7.80
2023-04-28T07:28:40.041Z,8.00
2023-04-28T07:31:12.272Z,8.00
2023-04-28T07:33:40.370Z,8.10
2023-04-28T07:36:11.456Z,8.20
2023-04-28T07:38:40.876Z,8.30
2023-04-28T07:41:11.039Z,8.30
2023-04-28T07:43:39.797Z,9.40
2023-04-28T07:46:08.276Z,8.50
2023-04-28T07:48:36.457Z,8.60
2023-04-28T07:51:04.448Z,8.60
2023-04-28T07:53:32.406Z,8.70
2023-04-28T07:56:02.029Z,8.70
2023-04-28T07:58:30.024Z,8.80
2023-04-28T08:01:03.812Z,8.80
2023-04-28T08:03:32.109Z,8.90
2023-04-28T08:06:00.680Z,9.00
2023-04-28T08:08:28.897Z,9.10
2023-04-28T08:10:57.266Z,9.20
2023-04-28T08:13:27.037Z,9.20
2023-04-28T08:16:00.659Z,9.30
2023-04-28T08:18:29.250Z,9.30
2023-04-28T08:20:57.297Z,9.50
2023-04-28T08:23:28.212Z,9.60
2023-04-28T08:25:56.199Z,9.60
2023-04-28T08:28:24.207Z,9.70
2023-04-28T08:30:57.511Z,9.80
2023-04-28T08:33:25.567Z,9.90
2023-04-28T08:35:55.016Z,10.00
2023-04-28T08:38:25.104Z,10.10
2023-04-28T08:40:53.127Z,10.20
2023-04-28T08:43:22.828Z,10.30
2023-04-28T08:45:50.994Z,10.40
2023-04-28T08:48:21.529Z,10.40
2023-04-28T08:50:51.362Z,10.50
2023-04-28T08:53:23.440Z,10.60
2023-04-28T08:55:52.668Z,10.60
2023-04-28T08:58:20.946Z,10.60
2023-04-28T09:00:48.909Z,10.70
2023-04-28T09:03:17.071Z,10.60
2023-04-28T09:05:46.642Z,10.70
2023-04-28T09:08:14.800Z,10.80
2023-04-28T09:10:42.916Z,10.80
2023-04-28T09:13:10.889Z,10.80
2023-04-28T09:15:41.714Z,10.80
2023-04-28T09:18:09.738Z,11.00
2023-04-28T09:20:40.087Z,11.00
2023-04-28T09:23:16.378Z,11.10
2023-04-28T09:25:57.457Z,11.20
2023-04-28T09:28:25.768Z,11.40
2023-04-28T09:30:53.942Z,11.50
2023-04-28T09:33:22.480Z,11.60
2023-04-28T09:35:50.760Z,11.70
2023-04-28T09:38:20.873Z,11.70
2023-04-28T09:40:56.713Z,11.90
2023-04-28T09:43:29.382Z,12.00
2023-04-28T09:45:57.975Z,12.20
2023-04-28T09:48:33.497Z,12.10
2023-04-28T09:51:02.637Z,12.20
2023-04-28T09:53:32.201Z,12.30
2023-04-28T09:56:00.834Z,12.40
2023-04-28T09:58:29.823Z,12.40
2023-04-28T10:00:58.810Z,12.50
2023-04-28T10:03:29.585Z,12.40
2023-04-28T10:05:58.402Z,12.40
2023-04-28T10:08:27.863Z,12.50
2023-04-28T10:10:57.821Z,12.60
2023-04-28T10:13:25.951Z,12.60
2023-04-28T10:15:55.433Z,12.50
2023-04-28T10:18:24.094Z,12.40
2023-04-28T10:21:01.089Z,12.50
2023-04-28T10:23:48.176Z,12.60
2023-04-28T10:26:19.689Z,12.60
2023-04-28T10:28:48.711Z,12.60
2023-04-28T10:31:17.603Z,12.60
2023-04-28T10:33:45.805Z,12.60
2023-04-28T10:36:39.376Z,12.50
2023-04-28T10:39:11.815Z,12.40
2023-04-28T10:41:41.798Z,12.40
2023-04-28T10:44:28.112Z,12.40
2023-04-28T10:47:06.758Z,12.50
2023-04-28T10:49:53.591Z,12.50
2023-04-28T10:52:40.204Z,12.50
2023-04-28T10:55:26.873Z,12.40
2023-04-28T10:58:13.949Z,12.30
2023-04-28T11:00:45.202Z,12.30
2023-04-28T11:03:39.696Z,12.30
2023-04-28T11:06:29.387Z,12.30
2023-04-28T11:09:00.376Z,12.30
2023-04-28T11:11:29.595Z,12.30
2023-04-28T11:14:18.212Z,12.40
2023-04-28T11:16:54.766Z,12.50
2023-04-28T11:19:23.262Z,12.50
2023-04-28T11:21:55.233Z,12.60
2023-04-28T11:24:25.537Z,12.50
2023-04-28T11:26:53.727Z,12.60
2023-04-28T11:29:31.751Z,12.70
2023-04-28T11:32:01.307Z,12.70
2023-04-28T11:34:29.394Z,12.80
2023-04-28T11:36:57.516Z,12.70
2023-04-28T11:39:31.588Z,12.70
2023-04-28T11:42:00.774Z,12.80
2023-04-28T11:44:30.114Z,12.90
2023-04-28T11:47:00.921Z,13.00
2023-04-28T11:49:31.530Z,13.10
2023-04-28T11:52:00.374Z,13.30
2023-04-28T11:54:29.310Z,13.30
2023-04-28T11:56:57.931Z,13.30
2023-04-28T11:59:27.210Z,13.40
2023-04-28T12:01:57.218Z,13.50
2023-04-28T12:04:31.975Z,13.40
2023-04-28T12:07:02.938Z,13.40
2023-04-28T12:09:30.976Z,13.50
2023-04-28T12:12:00.161Z,13.50
2023-04-28T12:14:28.164Z,13.50
2023-04-28T12:16:56.972Z,13.40
2023-04-28T12:19:31.632Z,13.50
2023-04-28T12:22:01.979Z,13.50
2023-04-28T12:24:30.054Z,13.50
2023-04-28T12:27:12.934Z,13.50
2023-04-28T12:29:43.676Z,13.60
2023-04-28T12:32:12.545Z,13.60
2023-04-28T12:34:41.476Z,13.70
2023-04-28T12:37:12.272Z,13.70
2023-04-28T12:39:43.725Z,13.70
2023-04-28T12:42:11.869Z,13.80
2023-04-28T12:44:40.778Z,13.80
2023-04-28T12:47:09.309Z,13.90
2023-04-28T12:49:37.355Z,13.80
2023-04-28T12:52:05.876Z,13.90
2023-04-28T12:54:35.253Z,13.90
2023-04-28T12:57:03.529Z,12.20
2023-04-28T12:59:31.679Z,14.10
2023-04-28T13:01:59.899Z,14.10
2023-04-28T13:04:28.373Z,14.10
2023-04-28T13:06:58.376Z,14.10
2023-04-28T13:09:26.534Z,14.20
2023-04-28T13:11:55.892Z,14.20
2023-04-28T13:14:24.047Z,14.20
2023-04-28T13:16:53.229Z,14.20
2023-04-28T13:19:21.178Z,14.20
2023-04-28T13:21:52.776Z,14.20
2023-04-28T13:24:20.817Z,14.10
2023-04-28T13:26:48.795Z,14.00
2023-04-28T13:29:18.304Z,14.10
2023-04-28T13:31:46.438Z,14.10
2023-04-28T13:34:16.369Z,14.10
2023-04-28T13:36:44.662Z,14.20
2023-04-28T13:39:14.613Z,14.20
2023-04-28T13:41:47.110Z,14.30
2023-04-28T13:44:19.387Z,14.40
2023-04-28T13:46:47.623Z,14.30
2023-04-28T13:49:15.941Z,14.40
2023-04-28T13:51:45.500Z,14.40
2023-04-28T13:54:13.549Z,14.50
2023-04-28T13:56:41.577Z,14.60
2023-04-28T13:59:12.127Z,14.70
2023-04-28T14:01:41.564Z,14.70
2023-04-28T14:04:09.781Z,14.80
2023-04-28T14:06:38.575Z,14.80
2023-04-28T14:09:11.339Z,14.80
2023-04-28T14:11:39.306Z,14.80
2023-04-28T14:14:09.909Z,14.60
2023-04-28T14:16:38.001Z,14.60
2023-04-28T14:19:08.491Z,14.70
2023-04-28T14:21:38.079Z,14.70
2023-04-28T14:24:06.631Z,14.70
2023-04-28T14:26:34.651Z,14.60
2023-04-28T14:29:02.676Z,14.50
2023-04-28T14:31:30.647Z,14.40
2023-04-28T14:33:58.783Z,14.40
2023-04-28T14:36:28.553Z,14.40
2023-04-28T14:38:56.664Z,14.30
2023-04-28T14:41:25.027Z,14.30
2023-04-28T14:43:53.004Z,14.30
2023-04-28T14:46:22.976Z,14.30
2023-04-28T14:48:51.299Z,14.30
2023-04-28T14:51:19.306Z,14.20
2023-04-28T14:53:49.116Z,14.20
2023-04-28T14:56:18.560Z,14.20
2023-04-28T14:58:49.410Z,14.20
2023-04-28T15:01:18.289Z,14.10
2023-04-28T15:03:46.568Z,14.10
2023-04-28T15:06:14.648Z,14.10
2023-04-28T15:08:42.723Z,14.10
2023-04-28T15:11:12.147Z,14.10
2023-04-28T15:13:42.348Z,14.20
2023-04-28T15:16:11.187Z,14.10
2023-04-28T15:18:43.627Z,14.10
2023-04-28T15:21:11.676Z,14.10
2023-04-28T15:23:39.650Z,14.10
2023-04-28T15:26:08.552Z,14.10
2023-04-28T15:28:38.189Z,14.00
2023-04-28T15:31:08.885Z,14.00
2023-04-28T15:33:41.345Z,14.00
2023-04-28T15:36:09.489Z,13.90
2023-04-28T15:38:38.408Z,13.90
2023-04-28T15:41:07.755Z,13.80
2023-04-28T15:43:37.379Z,13.80
2023-04-28T15:46:09.291Z,13.80
2023-04-28T15:48:43.694Z,13.80
2023-04-28T15:51:12.263Z,13.70
2023-04-28T15:53:41.674Z,13.70
2023-04-28T15:56:11.262Z,13.70
2023-04-28T15:58:50.869Z,13.70
2023-04-28T16:01:23.578Z,13.70
2023-04-28T16:03:51.747Z,13.70
2023-04-28T16:06:19.857Z,13.60
2023-04-28T16:08:47.924Z,13.60
2023-04-28T16:11:19.312Z,13.50
2023-04-28T16:13:47.350Z,13.50
2023-04-28T16:16:15.445Z,13.50
2023-04-28T16:18:44.740Z,13.40
2023-04-28T16:21:16.501Z,13.40
2023-04-28T16:23:44.495Z,13.40
2023-04-28T16:26:12.484Z,13.40
2023-04-28T16:28:40.591Z,13.40
2023-04-28T16:31:12.306Z,13.40
2023-04-28T16:33:40.387Z,13.40
2023-04-28T16:36:12.556Z,13.40
2023-04-28T16:38:41.137Z,13.30
2023-04-28T16:41:09.120Z,13.40
2023-04-28T16:43:38.178Z,13.30
2023-04-28T16:46:07.556Z,13.30
2023-04-28T16:48:35.742Z,13.30
2023-04-28T16:51:06.983Z,13.30
2023-04-28T16:53:36.569Z,13.20
2023-04-28T16:56:04.947Z,13.30
2023-04-28T16:58:33.151Z,13.20
2023-04-28T17:01:05.688Z,13.20
2023-04-28T17:03:37.155Z,13.20
2023-04-28T17:06:05.412Z,13.10
2023-04-28T17:08:33.421Z,13.10
2023-04-28T17:11:04.573Z,13.10
2023-04-28T17:13:32.865Z,13.00
2023-04-28T17:16:02.284Z,13.00
2023-04-28T17:18:31.098Z,12.90
2023-04-28T17:20:59.048Z,12.90
2023-04-28T17:23:27.758Z,12.90
2023-04-28T17:25:56.461Z,12.90
2023-04-28T17:28:27.864Z,12.80
2023-04-28T17:30:59.767Z,12.80
2023-04-28T17:33:30.597Z,12.80
2023-04-28T17:35:58.587Z,12.80
2023-04-28T17:38:26.805Z,12.70
2023-04-28T17:40:54.985Z,12.70
2023-04-28T17:43:25.592Z,12.60
2023-04-28T17:45:55.009Z,12.50
2023-04-28T17:48:23.299Z,12.50
2023-04-28T17:50:51.275Z,12.50
2023-04-28T17:53:19.293Z,12.50
2023-04-28T17:55:47.244Z,12.50
2023-04-28T17:58:18.804Z,12.50
2023-04-28T18:00:46.845Z,12.40
2023-04-28T18:03:16.356Z,12.40
2023-04-28T18:05:44.341Z,12.40
2023-04-28T18:08:12.329Z,12.40
2023-04-28T18:10:40.332Z,12.30
2023-04-28T18:13:09.554Z,12.30
2023-04-28T18:15:37.497Z,12.30
2023-04-28T18:18:05.815Z,12.20
2023-04-28T18:20:35.188Z,12.20
2023-04-28T18:23:03.160Z,12.20
2023-04-28T18:25:36.436Z,12.20
2023-04-28T18:28:08.046Z,12.10
2023-04-28T18:30:40.527Z,12.10
2023-04-28T18:33:10.650Z,12.10
2023-04-28T18:35:39.998Z,12.10
2023-04-28T18:38:07.958Z,12.10
2023-04-28T18:40:37.773Z,12.10
2023-04-28T18:43:06.242Z,12.00
2023-04-28T18:45:39.080Z,12.00
2023-04-28T18:48:08.091Z,12.00
2023-04-28T18:50:36.909Z,12.00
2023-04-28T18:53:06.664Z,11.90
2023-04-28T18:55:35.022Z,11.90
2023-04-28T18:58:11.438Z,11.90
2023-04-28T19:00:39.461Z,11.90
2023-04-28T19:03:07.537Z,11.90
2023-04-28T19:05:37.760Z,11.90
2023-04-28T19:08:10.859Z,11.90
2023-04-28T19:10:39.774Z,11.80
2023-04-28T19:13:07.723Z,11.80
2023-04-28T19:15:36.004Z,11.80
2023-04-28T19:18:05.218Z,11.80
2023-04-28T19:20:33.582Z,11.80
2023-04-28T19:23:03.644Z,11.80
2023-04-28T19:25:36.708Z,11.80
2023-04-28T19:28:04.872Z,11.80
2023-04-28T19:30:32.926Z,11.70
2023-04-28T19:33:00.980Z,11.70
2023-04-28T19:35:29.032Z,12.00
2023-04-28T19:37:57.024Z,11.60
2023-04-28T19:40:26.304Z,11.60
2023-04-28T19:42:56.181Z,11.60
2023-04-28T19:45:24.584Z,11.60
2023-04-28T19:47:53.723Z,11.60
2023-04-28T19:50:21.931Z,11.50
2023-04-28T19:52:49.932Z,11.50
2023-04-28T19:55:20.015Z,11.50
2023-04-28T19:57:48.045Z,11.40
2023-04-28T20:00:17.685Z,11.40
2023-04-28T20:02:45.869Z,11.40
2023-04-28T20:05:17.570Z,11.40
2023-04-28T20:07:46.192Z,11.40
2023-04-28T20:10:14.432Z,11.40
2023-04-28T20:12:42.777Z,11.40
2023-04-28T20:15:11.019Z,11.30
2023-04-28T20:17:40.398Z,11.30
2023-04-28T20:20:09.828Z,11.40
2023-04-28T20:22:41.391Z,11.10
2023-04-28T20:25:10.726Z,11.10
2023-04-28T20:27:39.234Z,11.10
2023-04-28T20:30:07.947Z,11.10
2023-04-28T20:32:36.700Z,11.10
2023-04-28T20:35:07.207Z,11.10
2023-04-28T20:37:35.214Z,11.10
2023-04-28T20:40:03.279Z,11.10
2023-04-28T20:42:31.259Z,11.00
2023-04-28T20:45:00.050Z,11.00
2023-04-28T20:47:28.344Z,11.00
2023-04-28T20:49:56.388Z,11.00
2023-04-28T20:52:25.783Z,10.90
2023-04-28T20:54:56.654Z,10.80
2023-04-28T20:57:24.724Z,10.80
2023-04-28T20:59:52.835Z,10.80
2023-04-28T21:02:21.132Z,10.80
2023-04-28T21:04:49.277Z,10.70
2023-04-28T21:07:17.229Z,10.70
2023-04-28T21:09:46.600Z,10.70
2023-04-28T21:12:14.580Z,10.70
2023-04-28T21:14:42.567Z,10.70
2023-04-28T21:17:10.769Z,10.70
2023-04-28T21:19:38.746Z,10.70
2023-04-28T21:22:06.674Z,10.70
2023-04-28T21:24:34.652Z,10.70
2023-04-28T21:27:04.816Z,10.70
2023-04-28T21:29:34.241Z,10.70
2023-04-28T21:32:02.294Z,10.70
2023-04-28T21:34:30.385Z,10.70
2023-04-28T21:36:58.704Z,10.70
2023-04-28T21:39:26.855Z,10.70
2023-04-28T21:41:54.829Z,10.70
2023-04-28T21:44:24.211Z,10.60
2023-04-28T21:46:52.662Z,10.60
2023-04-28T21:49:20.640Z,10.60
2023-04-28T21:51:48.626Z,10.60
2023-04-28T21:54:16.989Z,10.50
2023-04-28T21:56:44.954Z,10.50
2023-04-28T21:59:12.950Z,10.50
2023-04-28T22:01:42.698Z,10.50
2023-04-28T22:04:10.909Z,10.50
2023-04-28T22:06:39.046Z,10.50
2023-04-28T22:09:07.299Z,10.50
2023-04-28T22:11:35.315Z,10.50
2023-04-28T22:14:03.503Z,10.50
2023-04-28T22:16:31.632Z,10.50
2023-04-28T22:19:02.263Z,10.40
2023-04-28T22:21:30.321Z,10.40
2023-04-28T22:23:58.320Z,10.40
2023-04-28T22:26:26.403Z,10.40
2023-04-28T22:28:55.301Z,10.40
2023-04-28T22:31:23.388Z,10.40
2023-04-28T22:33:51.375Z,10.40
2023-04-28T22:36:21.706Z,10.30
2023-04-28T22:38:49.704Z,10.30
2023-04-28T22:41:17.810Z,10.30
2023-04-28T22:43:45.836Z,10.30
2023-04-28T22:46:13.812Z,10.30
2023-04-28T22:48:42.929Z,10.30
2023-04-28T22:51:10.946Z,10.30
2023-04-28T22:53:40.705Z,10.30
2023-04-28T22:56:12.500Z,10.30
2023-04-28T22:58:40.426Z,10.30
2023-04-28T23:01:08.685Z,10.30
2023-04-28T23:03:38.247Z,10.30
2023-04-28T23:06:06.423Z,10.20
2023-04-28T23:08:35.231Z,10.30
2023-04-28T23:11:06.565Z,10.20
2023-04-28T23:13:34.619Z,10.30
2023-04-28T23:16:02.727Z,10.30
2023-04-28T23:18:32.551Z,10.20
2023-04-28T23:21:00.751Z,10.20
2023-04-28T23:23:28.773Z,10.20
2023-04-28T23:25:58.762Z,10.20
2023-04-28T23:28:30.851Z,10.20
2023-04-28T23:31:00.465Z,10.10
2023-04-28T23:33:29.504Z,10.10
2023-04-28T23:35:57.453Z,10.10
2023-04-28T23:38:26.379Z,10.10
2023-04-28T23:40:54.765Z,10.10
2023-04-28T23:43:22.699Z,8.70
2023-04-28T23:45:52.444Z,10.60
2023-04-28T23:48:20.438Z,10.00
2023-04-28T23:50:49.111Z,10.00
2023-04-28T23:53:19.865Z,10.00
2023-04-28T23:55:47.914Z,10.00
2023-04-28T23:58:16.039Z,10.00
